首页
METAR-TAF:

METAR-TAF

机场 :

南京禄口国际机场

南京, 中华人民共和国

纬度: 32-00N, 经度: 118-48E, 海拔: 12米

当前天气观测

该预报发布于26分钟前的00:00 UTC
风速6节,风向,在东转东南之间变化
温度 13°C
湿度 88%
气压 1018 hPa
能見度: 2200
轻雾

METAR: ZSNJ 190000Z 17003MPS 110V190 2200 BR NSC 13/11 Q1018 BECMG TL0100 3000 HZ

时间: 08:26 (00:26 UTC)

预报

该预报发布于5小时和23分钟前的19:03 UTC
预报有效从19日的 00点(UTC)到 19日的 24点(UTC)
风速10节,风向东南
能見度: 3000

TAF: ZSNJ 181903Z 1900/1924 13005MPS 3000 HZ NSC TX22/1906Z TN10/1900Z

超过4000个机场的气象观测和天气预报(METAR&TAF报告)。

可查询的气象台以黄色和红色小点在地图上表示。

将鼠标移到小点上方,可查看气象台名称。

然后点击查看天气观测和预报。

如需切换地图:点击带黑十字的绿色按钮放大地图;点击带横线的绿色按钮缩小地图;或者点击绿色箭头查看邻近地区的地图。


METAR-TAF: